Time,TemperatureF,DewpointF,PressureIn,WindDirection,WindDirectionDegrees,WindSpeedMPH,WindSpeedGustMPH,Humidity,HourlyPrecipIn,Conditions,Clouds,dailyrainin,SoftwareType,DateUTC
2013-05-22 00:21:00,59.0,56.0,29.85,SSE,160,1.0,-999.0,90,0.00,,,-99.99,,2013-05-22 07:21:00,
2013-05-22 00:31:00,59.0,56.0,29.85,SSE,160,1.0,-999.0,90,0.00,,,-99.99,,2013-05-22 07:31:00,
2013-05-22 00:41:00,59.0,56.0,29.85,SSE,160,1.0,-999.0,90,0.00,,,-99.99,,2013-05-22 07:41:00,
2013-05-22 00:52:00,59.0,56.0,29.85,SSE,160,1.0,-999.0,90,0.00,,,-99.99,,2013-05-22 07:52:00,
2013-05-22 01:22:00,59.0,55.0,29.84,North,0,0.0,-999.0,88,0.00,,,-99.99,,2013-05-22 08:22:00,
2013-05-22 01:31:00,59.0,55.0,29.84,North,0,0.0,-999.0,88,0.00,,,-99.99,,2013-05-22 08:31:00,
2013-05-22 01:41:00,59.0,55.0,29.84,North,0,0.0,-999.0,88,0.00,,,-99.99,,2013-05-22 08:41:00,
2013-05-22 01:51:00,59.0,55.0,29.84,North,0,0.0,-999.0,88,0.00,,,-99.99,,2013-05-22 08:51:00,
2013-05-22 02:21:00,59.0,55.0,29.83,SE,140,1.0,-999.0,87,0.00,,,-99.99,,2013-05-22 09:21:00,
2013-05-22 02:32:00,59.0,55.0,29.83,SE,140,1.0,-999.0,87,0.00,,,-99.99,,2013-05-22 09:32:00,
2013-05-22 02:42:00,59.0,55.0,29.83,SE,140,1.0,-999.0,87,0.00,,,-99.99,,2013-05-22 09:42:00,
2013-05-22 02:53:00,59.0,55.0,29.83,SE,140,1.0,-999.0,87,0.00,,,-99.99,,2013-05-22 09:53:00,
2013-05-22 03:22:00,59.0,55.0,29.81,North,0,0.0,-999.0,86,0.00,,,-99.99,,2013-05-22 10:22:00,
2013-05-22 03:33:00,59.0,55.0,29.81,North,0,0.0,-999.0,86,0.00,,,-99.99,,2013-05-22 10:33:00,
2013-05-22 03:42:00,59.0,55.0,29.81,North,0,0.0,-999.0,86,0.00,,,-99.99,,2013-05-22 10:42:00,
2013-05-22 03:52:00,59.0,55.0,29.81,North,0,0.0,-999.0,86,0.00,,,-99.99,,2013-05-22 10:52:00,
2013-05-22 04:21:00,59.0,55.0,29.80,North,0,0.0,-999.0,86,0.00,,,-99.99,,2013-05-22 11:21:00,
2013-05-22 04:32:00,59.0,55.0,29.80,North,0,0.0,-999.0,86,0.00,,,-99.99,,2013-05-22 11:32:00,
2013-05-22 04:41:00,59.0,55.0,29.80,North,0,0.0,-999.0,86,0.00,,,-99.99,,2013-05-22 11:41:00,
2013-05-22 04:52:00,59.0,55.0,29.80,North,0,0.0,-999.0,86,0.00,,,-99.99,,2013-05-22 11:52:00,
2013-05-22 05:22:00,58.0,54.0,29.80,ESE,120,1.0,-999.0,87,0.00,,,-99.99,,2013-05-22 12:22:00,
2013-05-22 05:32:00,58.0,54.0,29.80,ESE,120,1.0,-999.0,87,0.00,,,-99.99,,2013-05-22 12:32:00,
2013-05-22 05:42:00,58.0,54.0,29.80,ESE,120,1.0,-999.0,87,0.00,,,-99.99,,2013-05-22 12:42:00,
2013-05-22 05:52:00,58.0,54.0,29.80,ESE,120,1.0,-999.0,87,0.00,,,-99.99,,2013-05-22 12:52:00,
2013-05-22 06:22:00,58.0,54.0,29.80,SE,140,1.0,-999.0,86,0.00,,,-99.99,,2013-05-22 13:22:00,
2013-05-22 06:32:00,58.0,54.0,29.80,SE,140,1.0,-999.0,86,0.00,,,-99.99,,2013-05-22 13:32:00,
2013-05-22 06:41:00,58.0,54.0,29.80,SE,140,1.0,-999.0,86,0.00,,,-99.99,,2013-05-22 13:41:00,
2013-05-22 06:52:00,58.0,54.0,29.80,SE,140,1.0,-999.0,86,0.00,,,-99.99,,2013-05-22 13:52:00,
2013-05-22 07:21:00,58.0,54.0,29.82,North,0,0.0,-999.0,86,0.00,,,-99.99,,2013-05-22 14:21:00,
2013-05-22 07:32:00,58.0,54.0,29.82,North,0,0.0,-999.0,86,0.00,,,-99.99,,2013-05-22 14:32:00,
2013-05-22 07:41:00,58.0,54.0,29.82,North,0,0.0,-999.0,86,0.00,,,-99.99,,2013-05-22 14:41:00,
2013-05-22 07:52:00,58.0,54.0,29.82,North,0,0.0,-999.0,86,0.00,,,-99.99,,2013-05-22 14:52:00,
2013-05-22 08:21:00,59.0,54.0,29.83,North,0,0.0,-999.0,85,0.00,,,-99.99,,2013-05-22 15:21:00,
2013-05-22 08:32:00,59.0,54.0,29.83,North,0,0.0,-999.0,85,0.00,,,-99.99,,2013-05-22 15:32:00,
2013-05-22 08:42:00,59.0,54.0,29.83,North,0,0.0,-999.0,85,0.00,,,-99.99,,2013-05-22 15:42:00,
2013-05-22 08:53:00,59.0,54.0,29.83,North,0,0.0,-999.0,85,0.00,,,-99.99,,2013-05-22 15:53:00,
2013-05-22 09:23:00,60.0,55.0,29.84,SSE,160,1.0,-999.0,84,0.00,,,-99.99,,2013-05-22 16:23:00,
2013-05-22 09:32:00,60.0,55.0,29.84,SSE,160,1.0,-999.0,84,0.00,,,-99.99,,2013-05-22 16:32:00,
2013-05-22 09:42:00,60.0,55.0,29.84,SSE,160,1.0,-999.0,84,0.00,,,-99.99,,2013-05-22 16:42:00,
2013-05-22 09:52:00,60.0,55.0,29.84,SSE,160,1.0,-999.0,84,0.00,,,-99.99,,2013-05-22 16:52:00,
2013-05-22 10:22:00,62.0,56.0,29.84,ESE,120,1.0,-999.0,80,0.00,,,-99.99,,2013-05-22 17:22:00,
2013-05-22 10:32:00,62.0,56.0,29.84,ESE,120,1.0,-999.0,80,0.00,,,-99.99,,2013-05-22 17:32:00,
2013-05-22 10:42:00,62.0,56.0,29.84,ESE,120,1.0,-999.0,80,0.00,,,-99.99,,2013-05-22 17:42:00,
2013-05-22 10:53:00,62.0,56.0,29.84,ESE,120,1.0,-999.0,80,0.00,,,-99.99,,2013-05-22 17:53:00,
2013-05-22 11:22:00,65.0,56.0,29.84,West,270,3.0,-999.0,73,0.00,,,-99.99,,2013-05-22 18:22:00,
2013-05-22 11:33:00,65.0,56.0,29.84,West,270,3.0,-999.0,73,0.00,,,-99.99,,2013-05-22 18:33:00,
2013-05-22 11:42:00,65.0,56.0,29.84,West,270,3.0,-999.0,73,0.00,,,-99.99,,2013-05-22 18:42:00,
2013-05-22 11:52:00,65.0,56.0,29.84,West,270,3.0,-999.0,73,0.00,,,-99.99,,2013-05-22 18:52:00,
2013-05-22 12:21:00,66.0,56.0,29.83,WSW,250,4.0,-999.0,71,0.00,,,-99.99,,2013-05-22 19:21:00,
2013-05-22 12:32:00,66.0,56.0,29.83,WSW,250,4.0,-999.0,71,0.00,,,-99.99,,2013-05-22 19:32:00,
2013-05-22 12:42:00,66.0,56.0,29.83,WSW,250,4.0,-999.0,71,0.00,,,-99.99,,2013-05-22 19:42:00,
2013-05-22 12:52:00,66.0,56.0,29.83,WSW,250,4.0,-999.0,71,0.00,,,-99.99,,2013-05-22 19:52:00,
2013-05-22 13:21:00,66.0,56.0,29.82,SW,220,4.0,-999.0,71,0.00,,,-99.99,,2013-05-22 20:21:00,
2013-05-22 13:32:00,66.0,56.0,29.82,SW,220,4.0,-999.0,71,0.00,,,-99.99,,2013-05-22 20:32:00,
2013-05-22 13:41:00,66.0,56.0,29.82,SW,220,4.0,-999.0,71,0.00,,,-99.99,,2013-05-22 20:41:00,
2013-05-22 13:51:00,66.0,56.0,29.82,SW,220,4.0,-999.0,71,0.00,,,-99.99,,2013-05-22 20:51:00,
2013-05-22 14:21:00,67.0,56.0,29.82,WSW,250,3.0,-999.0,68,0.00,,,-99.99,,2013-05-22 21:21:00,
2013-05-22 14:32:00,67.0,56.0,29.82,WSW,250,3.0,-999.0,68,0.00,,,-99.99,,2013-05-22 21:32:00,
2013-05-22 14:42:00,67.0,56.0,29.82,WSW,250,3.0,-999.0,68,0.00,,,-99.99,,2013-05-22 21:42:00,
2013-05-22 14:52:00,67.0,56.0,29.82,WSW,250,3.0,-999.0,68,0.00,,,-99.99,,2013-05-22 21:52:00,
2013-05-22 16:21:00,69.0,56.0,29.80,West,260,4.0,-999.0,63,0.00,,,-99.99,,2013-05-22 23:21:00,
2013-05-22 16:32:00,69.0,56.0,29.80,West,260,4.0,-999.0,63,0.00,,,-99.99,,2013-05-22 23:32:00,
2013-05-22 16:42:00,69.0,56.0,29.80,West,260,4.0,-999.0,63,0.00,,,-99.99,,2013-05-22 23:42:00,
2013-05-22 16:52:00,69.0,56.0,29.80,West,260,4.0,-999.0,63,0.00,,,-99.99,,2013-05-22 23:52:00,
2013-05-22 17:22:00,65.0,55.0,29.79,West,270,3.0,-999.0,70,0.00,,,-99.99,,2013-05-23 00:22:00,
2013-05-22 17:31:00,65.0,55.0,29.79,West,270,3.0,-999.0,70,0.00,,,-99.99,,2013-05-23 00:31:00,
2013-05-22 17:42:00,65.0,55.0,29.79,West,270,3.0,-999.0,70,0.00,,,-99.99,,2013-05-23 00:42:00,
2013-05-22 17:51:00,65.0,55.0,29.79,West,270,3.0,-999.0,70,0.00,,,-99.99,,2013-05-23 00:51:00,
2013-05-22 18:21:00,62.0,55.0,29.79,WSW,240,2.0,-999.0,77,0.00,,,-99.99,,2013-05-23 01:21:00,
2013-05-22 18:32:00,62.0,55.0,29.79,WSW,240,2.0,-999.0,77,0.00,,,-99.99,,2013-05-23 01:32:00,
2013-05-22 18:42:00,62.0,55.0,29.79,WSW,240,2.0,-999.0,77,0.00,,,-99.99,,2013-05-23 01:42:00,
2013-05-22 18:52:00,62.0,55.0,29.79,WSW,240,2.0,-999.0,77,0.00,,,-99.99,,2013-05-23 01:52:00,
2013-05-22 19:21:00,60.0,55.0,29.80,West,260,4.0,-999.0,83,0.00,,,-99.99,,2013-05-23 02:21:00,
2013-05-22 19:31:00,60.0,55.0,29.80,West,260,4.0,-999.0,83,0.00,,,-99.99,,2013-05-23 02:31:00,
2013-05-22 19:42:00,60.0,55.0,29.80,West,260,4.0,-999.0,83,0.00,,,-99.99,,2013-05-23 02:42:00,
2013-05-22 19:51:00,60.0,55.0,29.80,West,260,4.0,-999.0,83,0.00,,,-99.99,,2013-05-23 02:51:00,
2013-05-22 20:21:00,59.0,54.0,29.80,North,0,0.0,-999.0,85,0.00,,,-99.99,,2013-05-23 03:21:00,
2013-05-22 20:33:00,59.0,54.0,29.80,North,0,0.0,-999.0,85,0.00,,,-99.99,,2013-05-23 03:33:00,
2013-05-22 20:43:00,59.0,54.0,29.80,North,0,0.0,-999.0,85,0.00,,,-99.99,,2013-05-23 03:43:00,
2013-05-22 20:53:00,59.0,54.0,29.80,North,0,0.0,-999.0,85,0.00,,,-99.99,,2013-05-23 03:53:00,
2013-05-22 21:22:00,59.0,55.0,29.82,WSW,250,1.0,-999.0,88,0.00,,,-99.99,,2013-05-23 04:22:00,
2013-05-22 21:33:00,59.0,55.0,29.82,WSW,250,1.0,-999.0,88,0.00,,,-99.99,,2013-05-23 04:33:00,
2013-05-22 21:42:00,59.0,55.0,29.82,WSW,250,1.0,-999.0,88,0.00,,,-99.99,,2013-05-23 04:42:00,
2013-05-22 21:52:00,59.0,55.0,29.82,WSW,250,1.0,-999.0,88,0.00,,,-99.99,,2013-05-23 04:52:00,
2013-05-22 23:21:00,59.0,55.0,29.84,South,170,1.0,-999.0,86,0.00,,,-99.99,,2013-05-23 06:21:00,
2013-05-22 23:31:00,59.0,55.0,29.84,South,170,1.0,-999.0,86,0.00,,,-99.99,,2013-05-23 06:31:00,
2013-05-22 23:41:00,59.0,55.0,29.84,South,170,1.0,-999.0,86,0.00,,,-99.99,,2013-05-23 06:41:00,
2013-05-22 23:52:00,59.0,55.0,29.84,South,170,1.0,-999.0,86,0.00,,,-99.99,,2013-05-23 06:52:00,
2013-05-22 23:55:00,58.0,53.0,29.84,North,0,0.0,-999.0,84,0.00,,,-99.99,,2013-05-23 06:55:00,